Flight Track Log - Related Links

Times and Time Zones

All times are in EDT time to prevent confusion due to time zone crossing. See the CES2375 flight status page for this flight to view local times or setup timezone preferences in your user account.

Time Position Orientation Groundspeed Altitude Reporting Facility
EDT Latitude Longitude Course Direction KTS MPH feet Rate Location/Type
Wed 02:08:00 AM 35.8324 100.3018 284° West  Level Estimated
Wed 02:09:00 AM 35.8481 100.1774 279° West  Level Estimated
Wed 02:10:00 AM 35.8636 100.0529 279° West  Level Estimated
Wed 02:11:00 AM 35.8791 99.9283 279° West  Level Estimated
Wed 02:12:00 AM 35.8944 99.8037 279° West  Level Estimated
Wed 02:13:00 AM 35.9096 99.6791 279° West  Level Estimated
Wed 02:14:00 AM 35.9246 99.5544 279° West  Level Estimated
Wed 02:15:00 AM 35.9395 99.4296 278° West  Level Estimated
Wed 02:16:00 AM 35.9543 99.3048 278° West  Level Estimated
Wed 02:17:00 AM 35.9690 99.1800 278° West  Level Estimated
Wed 02:18:00 AM 35.9836 99.0551 278° West  Level Estimated
Wed 02:19:00 AM 35.9980 98.9302 278° West  Level Estimated
Wed 02:20:00 AM 36.0122 98.8053 278° West  Level Estimated
Wed 02:21:00 AM 36.0264 98.6802 278° West  Level Estimated
Wed 02:22:00 AM 36.0404 98.5552 278° West  Level Estimated
Wed 02:23:00 AM 36.0543 98.4301 278° West  Level Estimated
Wed 02:24:00 AM 36.0681 98.3049 278° West  Level Estimated
Wed 02:25:00 AM 36.0817 98.1797 278° West  Level Estimated
Wed 02:26:00 AM 36.0952 98.0545 278° West  Level Estimated
Wed 02:27:00 AM 36.1086 97.9292 278° West  Level Estimated
Wed 02:28:00 AM 36.1218 97.8039 277° West  Level Estimated
Wed 02:29:00 AM 36.1349 97.6786 277° West  Level Estimated
Wed 02:30:00 AM 36.1479 97.5531 277° West  Level Estimated
Wed 02:31:00 AM 36.1608 97.4277 277° West  Level Estimated
Wed 02:32:00 AM 36.1735 97.3022 277° West  Level Estimated
Wed 02:33:00 AM 36.1860 97.1767 277° West  Level Estimated
Wed 02:34:00 AM 36.1985 97.0511 277° West  Level Estimated
Wed 02:35:00 AM 36.2108 96.9255 277° West  Level Estimated
Wed 02:36:00 AM 36.2230 96.7999 277° West  Level Estimated
Wed 02:37:00 AM 36.2351 96.6742 277° West  Level Estimated
Wed 02:38:00 AM 36.2470 96.5485 277° West  Level Estimated
Wed 02:39:00 AM 36.2588 96.4227 277° West  Level Estimated
Wed 02:40:00 AM 36.2705 96.2969 277° West  Level Estimated
Wed 02:41:00 AM 36.2820 96.1711 277° West  Level Estimated
Wed 02:42:00 AM 36.2934 96.0452 276° West  Level Estimated
Wed 02:43:00 AM 36.3046 95.9193 276° West  Level Estimated
Wed 02:44:00 AM 36.3158 95.7933 276° West  Level Estimated
Wed 02:45:00 AM 36.3268 95.6674 276° West  Level Estimated
Wed 02:46:00 AM 36.3377 95.5413 276° West  Level Estimated
Wed 02:47:00 AM 36.3484 95.4153 276° West  Level Estimated
Wed 02:48:00 AM 36.3590 95.2892 276° West  Level Estimated
Wed 02:49:00 AM 36.3695 95.1631 276° West  Level Estimated
Wed 02:50:00 AM 36.3798 95.0369 276° West  Level Estimated
Wed 02:51:00 AM 36.3900 94.9107 276° West  Level Estimated
Wed 02:52:00 AM 36.4000 94.7861 276° West  Level Estimated
Wed 02:53:00 AM 36.4000 94.7861 90° East  Level Estimated
Wed 02:54:00 AM 36.4000 94.7861 90° East  Level Estimated
Wed 02:55:00 AM 36.4000 94.7861 90° East  Level Estimated
Wed 02:56:00 AM 36.4000 94.7861 90° East  Level Estimated
Wed 02:57:00 AM 36.4000 94.7861 90° East  Level Estimated
Wed 02:58:00 AM 36.4000 94.7861 90° East  Level Estimated
Wed 02:59:00 AM 36.4000 94.7861 90° East  Level Estimated
Wed 03:00:00 AM 36.4000 94.7861 90° East  Level Estimated
Wed 03:01:00 AM 36.4000 94.7861 90° East  Level Estimated
Wed 03:02:00 AM 36.4000 94.7861 90° East  Level Estimated
Wed 03:03:00 AM 36.4000 94.7861 90° East  Level Estimated
Wed 03:04:00 AM 36.4000 94.7861 90° East  Level Estimated
Wed 03:05:00 AM 36.4000 94.7861 90° East  Level Estimated
Wed 03:06:00 AM 36.4000 94.7861 90° East  Level Estimated
Wed 03:07:00 AM 36.4000 94.7861 90° East  Level Estimated
Wed 03:08:00 AM 36.4000 94.7861 90° East  Level Estimated

Login

Don't have an account? Register now (free) for customized features, flight alerts, and more!